Fishing Creek, Maryland
Current Conditions -  °F | °C
As of 5:52 PM on Friday 31 Oct 2014 (Local Time) from KNHK Reporting Station
Scattered Clouds Scattered Clouds  
Wind Chill: 52°   Ceiling: Unl
Heat Index: 52°   Visibility: 10mi
Dew Point: 35°   Wind: 9mph
Humidity: 53%   Direction: 350°N
Pressure: 29.85"   Gusts: NA
Location:  38.31°N, 76.23°W
Report Text: KNHK 312152Z 35008KT 10SM FEW050 FEW180 SCT250 11/02 A2985 RMK AO2 SLP109 T01110017 $
Loading
Personal Weather Stations






























Interactive Weather Map New forecast layout! Learn more

10-Day Weather Forecast

Advertisements
Track Severe Weather on mobile